Time;durP1;ratioP1;P1;durP2;ratioP2;P2;SDS_P1;SDS_P2;PMS_P1;PMS_P2;Temp;Humidity;BMP_temperature;BMP_pressure;BME280_temperature;BME280_humidity;BME280_pressure;Samples;Min_cycle;Max_cycle;Signal;HPM_P1;HPM_P2
2023/03/09 00:00:21;;;;;;;2.50;1.15;;;;;;;8.05;100.00;94859.66;5071697;28;20097;-59
2023/03/09 00:02:48;;;;;;;3.95;0.90;;;;;;;8.25;100.00;94860.34;5065331;28;20037;-58
2023/03/09 00:05:16;;;;;;;4.32;1.38;;;;;;;8.33;100.00;94875.84;5069944;28;20703;-58
2023/03/09 00:07:44;;;;;;;3.83;1.00;;;;;;;8.12;100.00;94888.09;5063949;28;20052;-57
2023/03/09 00:10:11;;;;;;;3.47;1.02;;;;;;;8.12;100.00;94896.19;5069518;28;20044;-58
2023/03/09 00:12:38;;;;;;;4.28;1.20;;;;;;;8.25;100.00;94918.88;5067528;28;20037;-56
2023/03/09 00:15:05;;;;;;;2.75;0.77;;;;;;;8.27;100.00;94927.44;5069996;28;20716;-55
2023/03/09 00:17:32;;;;;;;2.10;1.00;;;;;;;8.31;100.00;94941.94;5062243;28;20053;-56
2023/03/09 00:20:14;;;;;;;2.63;1.10;;;;;;;8.33;100.00;94964.00;5068015;28;20115;-58
2023/03/09 00:22:41;;;;;;;3.00;0.98;;;;;;;8.49;100.00;94952.94;5064134;28;20633;-56
2023/03/09 00:25:08;;;;;;;2.78;0.73;;;;;;;8.50;100.00;94963.44;5065970;28;20048;-56
2023/03/09 00:27:34;;;;;;;1.08;0.40;;;;;;;8.52;100.00;94930.78;5065480;28;20048;-58
2023/03/09 00:30:01;;;;;;;1.55;0.40;;;;;;;8.48;100.00;94937.88;5068838;28;20558;-57
2023/03/09 00:32:27;;;;;;;1.67;0.40;;;;;;;8.34;100.00;94946.75;5065669;28;20045;-57
2023/03/09 00:34:54;;;;;;;1.52;0.52;;;;;;;8.30;100.00;94951.13;5072651;28;20037;-56
2023/03/09 00:37:21;;;;;;;0.88;0.38;;;;;;;8.24;100.00;94963.91;5066992;28;20040;-57
2023/03/09 00:39:48;;;;;;;1.38;0.50;;;;;;;8.29;100.00;94963.03;5069802;28;20119;-57
2023/03/09 00:42:14;;;;;;;1.67;0.55;;;;;;;8.24;100.00;94968.47;5068787;28;20474;-58
2023/03/09 00:44:41;;;;;;;0.98;0.50;;;;;;;8.20;100.00;94969.09;5067387;28;20036;-57
2023/03/09 00:47:07;;;;;;;2.45;0.63;;;;;;;8.21;100.00;94975.25;5069593;28;20690;-56
2023/03/09 00:49:34;;;;;;;0.73;0.45;;;;;;;8.31;100.00;94952.72;5065620;28;20296;-58
2023/03/09 00:52:00;;;;;;;1.17;0.57;;;;;;;8.26;100.00;94972.47;5070686;28;20067;-58
2023/03/09 00:54:27;;;;;;;0.35;0.30;;;;;;;8.25;100.00;94959.31;5068437;28;20058;-58
2023/03/09 00:56:53;;;;;;;0.95;0.40;;;;;;;8.22;100.00;94959.91;5072035;28;20043;-58
2023/03/09 00:59:20;;;;;;;0.75;0.38;;;;;;;8.34;100.00;94962.91;5072718;28;20036;-57
2023/03/09 01:01:46;;;;;;;0.65;0.30;;;;;;;8.37;100.00;94948.81;5069759;28;20040;-58
2023/03/09 01:04:14;;;;;;;0.45;0.22;;;;;;;8.48;100.00;94945.97;5073835;28;20052;-57
2023/03/09 01:06:41;;;;;;;1.20;0.52;;;;;;;8.42;100.00;94951.44;5067241;28;20040;-55
2023/03/09 01:09:07;;;;;;;1.17;0.30;;;;;;;8.39;100.00;94946.66;5075081;28;20051;-57
2023/03/09 01:11:34;;;;;;;1.55;0.40;;;;;;;8.31;100.00;94944.63;5067052;28;20068;-57
2023/03/09 01:14:01;;;;;;;3.33;0.40;;;;;;;8.28;100.00;94943.34;5071586;28;20115;-57
2023/03/09 01:16:27;;;;;;;1.88;0.30;;;;;;;8.31;100.00;94936.53;5066403;28;20040;-56
2023/03/09 01:18:54;;;;;;;0.75;0.30;;;;;;;8.34;100.00;94946.75;5069844;28;22512;-55
2023/03/09 01:21:21;;;;;;;1.25;0.40;;;;;;;8.31;100.00;94920.38;5066031;28;20037;-57
2023/03/09 01:23:48;;;;;;;1.88;0.55;;;;;;;8.30;100.00;94919.56;5073022;28;20040;-56
2023/03/09 01:26:14;;;;;;;1.83;0.30;;;;;;;8.28;100.00;94937.94;5076348;28;20036;-57
2023/03/09 01:28:40;;;;;;;1.05;0.40;;;;;;;8.40;100.00;94940.16;5073941;28;20055;-58
2023/03/09 01:31:13;;;;;;;2.65;0.30;;;;;;;8.37;100.00;94948.81;5068818;28;20043;-56
2023/03/09 01:33:41;;;;;;;1.75;0.40;;;;;;;8.39;100.00;94959.31;5063882;28;20047;-57
2023/03/09 01:36:13;;;;;;;1.08;0.30;;;;;;;8.41;100.00;94957.13;5068840;28;21780;-57
2023/03/09 01:38:39;;;;;;;;;;;;;;;8.36;100.00;94946.44;5067011;28;20503;-56
2023/03/09 01:41:06;;;;;;;2.30;0.30;;;;;;;8.31;100.00;94940.06;5070848;28;19924;-57
2023/03/09 01:43:39;;;;;;;1.15;0.40;;;;;;;8.41;100.00;94940.97;5063695;28;20062;-56
2023/03/09 01:46:27;;;;;;;2.78;0.77;;;;;;;8.35;100.00;94915.97;5084473;28;20044;-57
2023/03/09 01:49:31;;;;;;;1.30;0.38;;;;;;;8.46;100.00;94940.84;5069536;28;20040;-58
2023/03/09 01:52:07;;;;;;;0.75;0.40;;;;;;;8.34;100.00;94965.63;5068255;28;20036;-57
2023/03/09 01:54:40;;;;;;;2.63;0.38;;;;;;;8.42;100.00;94950.63;5061606;28;20048;-57
2023/03/09 01:57:21;;;;;;;1.65;0.20;;;;;;;8.30;100.00;94948.44;5094591;27;20729;-56
2023/03/09 01:59:51;;;;;;;1.25;0.35;;;;;;;8.29;100.00;94938.75;5066828;28;20042;-57
2023/03/09 02:02:18;;;;;;;2.03;0.40;;;;;;;8.30;100.00;94932.25;5072250;28;20134;-58
2023/03/09 02:04:59;;;;;;;1.90;0.22;;;;;;;8.24;100.00;94922.66;5065375;28;20043;-57
2023/03/09 02:07:27;;;;;;;0.25;0.20;;;;;;;8.23;100.00;94912.97;5067486;28;20040;-58
2023/03/09 02:10:04;;;;;;;0.65;0.43;;;;;;;8.18;99.34;94914.66;5054710;28;20036;-57
2023/03/09 02:12:32;;;;;;;0.30;0.20;;;;;;;8.20;98.91;94907.09;5063315;28;20055;-57
2023/03/09 02:15:01;;;;;;;0.35;0.15;;;;;;;8.27;98.56;94913.97;5063700;28;20095;-57
2023/03/09 02:17:27;;;;;;;0.20;0.10;;;;;;;8.28;98.33;94926.34;5068232;28;20539;-58
2023/03/09 02:20:09;;;;;;;1.08;0.22;;;;;;;8.39;96.65;94916.97;5061106;28;20049;-57
2023/03/09 02:22:37;;;;;;;0.47;0.17;;;;;;;8.43;97.07;94912.59;5060525;28;20499;-58
2023/03/09 02:25:28;;;;;;;2.63;0.35;;;;;;;8.43;96.81;94922.56;5063856;28;20029;-57
2023/03/09 02:27:55;;;;;;;1.05;0.20;;;;;;;8.51;96.11;94923.78;5071668;28;20068;-58
2023/03/09 02:30:26;;;;;;;0.35;0.17;;;;;;;8.50;97.54;94933.78;5062488;28;20040;-58
2023/03/09 02:33:02;;;;;;;0.80;0.30;;;;;;;8.34;98.72;94930.56;5062384;28;20103;-57
2023/03/09 02:35:29;;;;;;;0.85;0.22;;;;;;;8.43;98.07;94930.66;5070016;28;20040;-58
2023/03/09 02:37:56;;;;;;;0.30;0.20;;;;;;;8.40;99.12;94923.19;5064910;28;20563;-55
2023/03/09 02:40:38;;;;;;;1.17;0.40;;;;;;;8.26;100.00;94920.47;5064673;28;20032;-56
2023/03/09 02:43:08;;;;;;;2.00;0.30;;;;;;;8.31;99.37;94934.66;5067653;28;20465;-56
2023/03/09 02:45:35;;;;;;;0.52;0.28;;;;;;;8.33;99.53;94972.09;5063916;28;20040;-57
2023/03/09 02:48:03;;;;;;;0.63;0.10;;;;;;;8.32;100.00;94963.22;5067989;28;20556;-58
2023/03/09 02:50:30;;;;;;;0.55;0.20;;;;;;;8.44;100.00;94970.03;5066109;28;20506;-58
2023/03/09 02:52:58;;;;;;;0.30;0.10;;;;;;;8.35;100.00;94998.75;5072938;28;20040;-56
2023/03/09 02:55:24;;;;;;;0.00;0.00;;;;;;;8.24;100.00;95003.53;5062545;28;20060;-58
2023/03/09 02:57:51;;;;;;;1.00;0.60;;;;;;;8.16;100.00;95005.81;5071457;28;20719;-56
2023/03/09 03:00:21;;;;;;;0.28;0.08;;;;;;;8.06;100.00;95011.34;5067337;28;20627;-55
2023/03/09 03:02:48;;;;;;;0.40;0.17;;;;;;;8.05;100.00;95025.94;5065195;28;20032;-58
2023/03/09 03:05:16;;;;;;;0.85;0.35;;;;;;;7.96;100.00;95055.44;5066589;28;20616;-57
2023/03/09 03:07:43;;;;;;;0.45;0.22;;;;;;;7.88;100.00;95064.97;5060617;28;20467;-56
2023/03/09 03:10:11;;;;;;;0.28;0.13;;;;;;;7.73;100.00;95082.16;5064313;28;20059;-56
2023/03/09 03:12:37;;;;;;;0.20;0.17;;;;;;;7.65;100.00;95113.25;5070975;28;20040;-56
2023/03/09 03:15:05;;;;;;;2.75;0.40;;;;;;;7.46;100.00;95171.63;5064842;28;20119;-56
2023/03/09 03:17:32;;;;;;;0.43;0.20;;;;;;;7.22;100.00;95145.50;5064000;28;20048;-56
2023/03/09 03:19:59;;;;;;;0.10;0.10;;;;;;;7.01;100.00;95119.59;5069139;28;20143;-59
2023/03/09 03:22:26;;;;;;;1.42;0.38;;;;;;;6.91;100.00;95133.16;5064194;28;20068;-58
2023/03/09 03:24:52;;;;;;;2.13;0.20;;;;;;;6.84;100.00;95141.56;5072530;28;20461;-57
2023/03/09 03:27:19;;;;;;;2.35;0.47;;;;;;;6.81;100.00;95139.44;5064221;28;20079;-58
2023/03/09 03:29:46;;;;;;;1.40;0.43;;;;;;;6.84;100.00;95157.69;5074930;28;20067;-59
2023/03/09 03:32:13;;;;;;;0.35;0.20;;;;;;;6.79;100.00;95148.88;5062528;28;20219;-58
2023/03/09 03:34:40;;;;;;;0.55;0.30;;;;;;;6.77;100.00;95138.38;5066938;28;20044;-58
2023/03/09 03:37:06;;;;;;;1.40;0.47;;;;;;;6.75;100.00;95135.97;5063925;28;20075;-58
2023/03/09 03:39:34;;;;;;;2.63;0.43;;;;;;;6.79;100.00;95154.25;5073483;28;20045;-58
2023/03/09 03:42:03;;;;;;;1.40;0.60;;;;;;;6.74;100.00;95163.97;5062769;28;20040;-59
2023/03/09 03:44:30;;;;;;;1.35;0.57;;;;;;;6.76;100.00;95169.06;5062918;28;20074;-58
2023/03/09 03:46:57;;;;;;;2.50;0.73;;;;;;;6.84;100.00;95157.69;5066527;28;20052;-57
2023/03/09 03:49:25;;;;;;;2.90;0.65;;;;;;;6.84;100.00;95181.91;5059374;28;20074;-58
2023/03/09 03:51:53;;;;;;;1.73;0.75;;;;;;;6.86;100.00;95203.94;5070340;28;20032;-58
2023/03/09 03:54:20;;;;;;;5.28;0.80;;;;;;;6.81;100.00;95174.41;5068649;28;20048;-58
2023/03/09 03:56:47;;;;;;;3.10;0.77;;;;;;;6.83;100.00;95182.19;5067436;28;20098;-58
2023/03/09 03:59:14;;;;;;;1.35;0.50;;;;;;;6.79;100.00;95199.97;5069670;28;20285;-58
2023/03/09 04:01:40;;;;;;;4.70;0.95;;;;;;;6.82;100.00;95197.50;5064571;28;20039;-57
2023/03/09 04:04:08;;;;;;;4.53;1.15;;;;;;;6.81;100.00;95212.06;5070448;28;20103;-56
2023/03/09 04:06:43;;;;;;;7.82;1.10;;;;;;;6.75;100.00;95194.38;5071571;28;20053;-58
2023/03/09 04:09:10;;;;;;;3.58;1.10;;;;;;;6.81;100.00;95193.22;5075191;28;20123;-57
2023/03/09 04:11:37;;;;;;;5.90;0.80;;;;;;;6.79;100.00;95208.03;5064465;28;20044;-58
2023/03/09 04:14:05;;;;;;;1.88;0.95;;;;;;;6.88;100.00;95203.66;5077023;28;20048;-58
2023/03/09 04:16:32;;;;;;;3.95;0.75;;;;;;;6.86;100.00;95209.31;5050338;28;20036;-58
2023/03/09 04:18:59;;;;;;;5.80;0.90;;;;;;;6.82;100.00;95223.63;5075685;28;20071;-58
2023/03/09 04:21:26;;;;;;;6.80;1.20;;;;;;;6.93;100.00;95222.44;5046517;28;20041;-59
2023/03/09 04:23:52;;;;;;;6.55;1.33;;;;;;;6.99;100.00;95236.66;5065431;28;20045;-57
2023/03/09 04:26:20;;;;;;;4.45;1.20;;;;;;;7.03;100.00;95241.22;5068014;28;20102;-59
2023/03/09 04:29:07;;;;;;;4.78;1.30;;;;;;;7.06;100.00;95242.53;5054663;28;20314;-58
2023/03/09 04:31:33;;;;;;;6.72;1.10;;;;;;;7.13;100.00;95251.09;5066000;28;20040;-58
2023/03/09 04:34:01;;;;;;;5.10;1.38;;;;;;;7.11;100.00;95261.31;5070135;28;20454;-58
2023/03/09 04:36:28;;;;;;;5.03;1.20;;;;;;;7.09;100.00;95274.28;5070004;28;20068;-59
2023/03/09 04:38:55;;;;;;;5.68;1.75;;;;;;;7.01;100.00;95264.09;5073524;28;20036;-59
2023/03/09 04:41:24;;;;;;;6.18;1.63;;;;;;;6.91;100.00;95305.34;5067706;28;20119;-58
2023/03/09 04:43:54;;;;;;;3.53;1.00;;;;;;;6.98;100.00;95296.94;5067387;28;20055;-59
2023/03/09 04:46:20;;;;;;;7.47;1.42;;;;;;;7.05;100.00;95297.44;5066914;28;20036;-59
2023/03/09 04:48:50;;;;;;;6.13;1.30;;;;;;;7.09;100.00;95330.78;5064266;28;20129;-58
2023/03/09 04:51:17;;;;;;;5.18;1.52;;;;;;;7.16;100.00;95306.25;5067545;28;20047;-58
2023/03/09 04:53:45;;;;;;;6.05;1.08;;;;;;;7.21;100.00;95321.53;5070644;28;20058;-59
2023/03/09 04:56:12;;;;;;;9.50;1.65;;;;;;;7.23;100.00;95319.38;5061857;28;20052;-58
2023/03/09 04:58:47;;;;;;;5.18;1.30;;;;;;;7.22;100.00;95331.25;5064789;28;20044;-59
2023/03/09 05:01:14;;;;;;;5.68;1.10;;;;;;;7.16;100.00;95336.63;5071008;28;20514;-58
2023/03/09 05:03:40;;;;;;;8.15;1.95;;;;;;;7.16;100.00;95336.63;5068569;28;20519;-57
2023/03/09 05:06:08;;;;;;;3.00;0.73;;;;;;;7.17;100.00;95353.59;5064244;28;20131;-57
2023/03/09 05:08:35;;;;;;;6.07;2.08;;;;;;;7.17;100.00;95361.69;5069755;28;20036;-57
2023/03/09 05:11:02;;;;;;;6.55;1.42;;;;;;;7.14;100.00;95332.63;5072606;28;20038;-58
2023/03/09 05:13:29;;;;;;;5.00;1.25;;;;;;;7.19;100.00;95359.50;5075713;28;20048;-59
2023/03/09 05:15:57;;;;;;;2.78;1.00;;;;;;;7.21;100.00;95364.59;5069092;28;20094;-59
2023/03/09 05:18:25;;;;;;;4.40;1.52;;;;;;;7.32;100.00;95358.06;5070779;28;20646;-58
2023/03/09 05:20:52;;;;;;;3.72;1.48;;;;;;;7.19;100.00;95372.94;5075266;28;20040;-58
2023/03/09 05:23:19;;;;;;;6.40;1.48;;;;;;;7.25;100.00;95374.53;5071944;28;20040;-58
2023/03/09 05:25:56;;;;;;;7.00;1.30;;;;;;;7.30;100.00;95376.41;5077164;28;20052;-58
2023/03/09 05:28:24;;;;;;;7.03;1.55;;;;;;;7.27;100.00;95385.81;5069653;28;20048;-58
2023/03/09 05:30:51;;;;;;;8.88;1.40;;;;;;;7.37;100.00;95400.31;5058551;28;20036;-58
2023/03/09 05:33:18;;;;;;;7.85;1.80;;;;;;;7.35;100.00;95397.91;5071281;28;20449;-59
2023/03/09 05:35:48;;;;;;;4.35;1.17;;;;;;;7.40;100.00;95408.63;5068668;28;20040;-58
2023/03/09 05:38:15;;;;;;;5.00;1.13;;;;;;;7.36;100.00;95417.53;5071207;28;20047;-59
2023/03/09 05:40:43;;;;;;;5.78;1.67;;;;;;;7.31;100.00;95413.00;5068408;28;20045;-58
2023/03/09 05:43:11;;;;;;;7.20;1.38;;;;;;;7.35;100.00;95408.66;5063807;28;20059;-59
2023/03/09 05:45:38;;;;;;;10.43;1.27;;;;;;;7.40;100.00;95415.88;5074198;28;20060;-59
2023/03/09 05:48:04;;;;;;;7.47;1.17;;;;;;;7.38;100.00;95418.84;5068448;28;20044;-58
2023/03/09 05:50:32;;;;;;;8.43;1.80;;;;;;;7.39;100.00;95430.44;5079404;28;20541;-59
2023/03/09 05:52:59;;;;;;;6.45;1.20;;;;;;;7.40;100.00;95432.03;5072823;28;20059;-58
2023/03/09 05:55:27;;;;;;;7.85;1.60;;;;;;;7.31;100.00;95439.09;5064777;28;20131;-58
2023/03/09 05:57:54;;;;;;;7.05;1.25;;;;;;;7.26;100.00;95435.38;5074705;28;20071;-58
2023/03/09 06:00:21;;;;;;;8.07;1.15;;;;;;;7.22;100.00;95436.22;5079831;28;20046;-58
2023/03/09 06:02:54;;;;;;;7.32;1.27;;;;;;;7.25;100.00;95451.78;5072789;28;20052;-58
2023/03/09 06:05:28;;;;;;;9.68;1.17;;;;;;;7.21;100.00;95464.19;5072960;28;20127;-59
2023/03/09 06:07:55;;;;;;;6.88;1.10;;;;;;;7.17;100.00;95463.94;5072349;28;20562;-58
2023/03/09 06:10:22;;;;;;;8.07;1.58;;;;;;;7.21;100.00;95480.34;5072271;28;20048;-58
2023/03/09 06:12:48;;;;;;;10.52;2.00;;;;;;;7.22;100.00;95468.50;5072771;28;20128;-59
2023/03/09 06:15:16;;;;;;;7.85;1.20;;;;;;;7.24;100.00;95474.41;5072034;28;20059;-58
2023/03/09 06:17:43;;;;;;;10.63;2.53;;;;;;;7.30;100.00;95484.09;5069406;28;20051;-58
2023/03/09 06:20:15;;;;;;;7.07;1.40;;;;;;;7.34;100.00;95471.66;5067712;28;20051;-58
2023/03/09 06:22:47;;;;;;;6.40;1.83;;;;;;;7.46;99.27;95490.19;5068595;28;20036;-59
2023/03/09 06:25:15;;;;;;;8.25;1.33;;;;;;;7.49;99.20;95483.44;5063906;28;20659;-58
2023/03/09 06:27:42;;;;;;;3.67;0.90;;;;;;;7.67;97.29;95482.78;5067148;28;20040;-58
2023/03/09 06:30:11;;;;;;;5.68;1.40;;;;;;;7.63;96.70;95492.50;5067496;28;20048;-58
2023/03/09 06:32:40;;;;;;;7.78;2.15;;;;;;;7.58;96.83;95480.94;5068800;28;20151;-58
2023/03/09 06:35:08;;;;;;;6.63;1.13;;;;;;;7.64;95.95;95491.44;5068920;28;20507;-59
2023/03/09 06:37:34;;;;;;;8.88;1.60;;;;;;;7.56;96.12;95483.94;5068040;28;20071;-58
2023/03/09 06:40:02;;;;;;;7.95;1.30;;;;;;;7.57;96.14;95490.94;5069117;28;20048;-58
2023/03/09 06:42:31;;;;;;;6.57;1.52;;;;;;;7.60;96.06;95484.19;5067705;28;20046;-59
2023/03/09 06:44:58;;;;;;;6.82;1.08;;;;;;;7.60;95.58;95501.16;5068520;28;20636;-59
2023/03/09 06:47:28;;;;;;;6.10;1.75;;;;;;;7.65;95.73;95503.81;5067054;28;20044;-59
2023/03/09 06:50:01;;;;;;;5.55;1.60;;;;;;;7.67;95.33;95525.09;5067758;28;20040;-59
2023/03/09 06:52:29;;;;;;;7.25;1.00;;;;;;;7.75;94.34;95513.72;5068775;28;20768;-58
2023/03/09 06:54:57;;;;;;;8.93;1.83;;;;;;;7.89;93.18;95530.03;5075324;28;20162;-58
2023/03/09 06:57:42;;;;;;;6.95;1.35;;;;;;;7.84;93.46;95521.19;5070982;28;20093;-58
2023/03/09 07:00:11;;;;;;;5.88;0.90;;;;;;;7.90;92.38;95538.94;5071560;28;20050;-58
2023/03/09 07:02:39;;;;;;;5.43;1.00;;;;;;;8.08;91.83;95537.47;5075469;28;20040;-58
2023/03/09 07:05:07;;;;;;;5.45;1.20;;;;;;;8.23;92.36;95546.50;5078961;28;20048;-58
2023/03/09 07:07:34;;;;;;;5.95;1.65;;;;;;;8.31;91.96;95554.00;5069818;28;20044;-59
2023/03/09 07:10:01;;;;;;;5.90;1.73;;;;;;;8.39;91.17;95566.06;5074791;28;20083;-56
2023/03/09 07:12:28;;;;;;;6.03;1.92;;;;;;;8.37;91.70;95550.16;5073279;28;20036;-58
2023/03/09 07:14:54;;;;;;;7.47;1.70;;;;;;;8.33;91.51;95547.22;5070993;28;20534;-58
2023/03/09 07:17:21;;;;;;;6.88;1.98;;;;;;;8.29;91.71;95562.38;5072248;28;20407;-58
2023/03/09 07:19:47;;;;;;;5.95;1.20;;;;;;;8.46;90.68;95578.16;5064060;28;20147;-58
2023/03/09 07:22:14;;;;;;;7.90;1.20;;;;;;;8.52;90.53;95565.41;5066614;28;20806;-58
2023/03/09 07:24:41;;;;;;;11.10;3.28;;;;;;;8.59;90.24;95581.31;5074118;28;20055;-58
2023/03/09 07:27:07;;;;;;;6.97;1.45;;;;;;;8.74;89.18;95591.16;5065336;28;20033;-58
2023/03/09 07:29:34;;;;;;;5.18;1.80;;;;;;;8.87;88.74;95587.00;5070825;28;20043;-58
2023/03/09 07:32:02;;;;;;;4.43;1.00;;;;;;;9.03;86.98;95582.22;5071643;28;20040;-59
2023/03/09 07:34:31;;;;;;;8.98;1.52;;;;;;;9.15;84.14;95594.53;5074284;28;20039;-57
2023/03/09 07:36:58;;;;;;;6.30;1.50;;;;;;;9.24;84.00;95593.63;5069942;28;20125;-58
2023/03/09 07:39:25;;;;;;;8.38;2.15;;;;;;;9.42;84.74;95610.19;5070102;28;20051;-58
2023/03/09 07:41:52;;;;;;;6.40;1.48;;;;;;;9.57;83.31;95605.66;5068050;28;20063;-58
2023/03/09 07:44:18;;;;;;;5.18;1.08;;;;;;;9.68;82.78;95620.66;5079238;28;20719;-58
2023/03/09 07:46:45;;;;;;;6.10;1.55;;;;;;;9.54;82.86;95622.47;5082037;28;20614;-58
2023/03/09 07:49:12;;;;;;;5.50;1.15;;;;;;;9.41;81.54;95616.69;5078206;28;20127;-56
2023/03/09 07:51:39;;;;;;;4.13;0.60;;;;;;;9.47;81.49;95620.13;5090593;28;20966;-57
2023/03/09 07:54:06;;;;;;;5.03;1.08;;;;;;;9.43;83.21;95622.59;5075801;28;20044;-58
2023/03/09 07:56:33;;;;;;;5.20;1.05;;;;;;;9.50;83.53;95628.44;5074893;28;20115;-58
2023/03/09 07:59:00;;;;;;;4.97;1.25;;;;;;;9.53;82.18;95637.06;5068838;28;20699;-57
2023/03/09 08:01:27;;;;;;;5.65;1.02;;;;;;;9.50;82.57;95636.56;5067962;28;20059;-54
2023/03/09 08:03:54;;;;;;;3.50;1.35;;;;;;;9.63;81.10;95631.56;5065639;28;20523;-57
2023/03/09 08:06:21;;;;;;;7.07;0.90;;;;;;;9.59;80.85;95644.03;5059669;28;20687;-47
2023/03/09 08:08:48;;;;;;;3.97;0.70;;;;;;;9.51;79.88;95653.56;5074203;28;20117;-51
2023/03/09 08:11:15;;;;;;;6.40;0.73;;;;;;;9.45;79.89;95660.94;5076607;28;20123;-55
2023/03/09 08:13:42;;;;;;;3.75;0.80;;;;;;;9.43;78.48;95662.31;5079107;28;20063;-51
2023/03/09 08:16:10;;;;;;;4.95;0.85;;;;;;;9.45;79.81;95668.22;5080227;28;20052;-50
2023/03/09 08:18:37;;;;;;;6.90;1.40;;;;;;;9.47;80.48;95683.06;5080152;28;20044;-53
2023/03/09 08:21:08;;;;;;;5.57;0.90;;;;;;;9.55;78.54;95672.72;5083785;28;20036;-57
2023/03/09 08:23:37;;;;;;;5.90;1.00;;;;;;;9.59;79.18;95690.75;5085495;28;20115;-55
2023/03/09 08:26:04;;;;;;;5.35;1.13;;;;;;;9.69;79.82;95679.03;5074442;28;20156;-58
2023/03/09 08:28:30;;;;;;;5.65;1.25;;;;;;;9.67;78.94;95696.63;5079032;28;20047;-59
2023/03/09 08:30:57;;;;;;;7.60;1.08;;;;;;;9.57;79.88;95692.94;5079915;28;20047;-57
2023/03/09 08:33:24;;;;;;;3.28;1.15;;;;;;;9.60;80.73;95702.38;5043266;28;20226;-57
2023/03/09 08:35:51;;;;;;;3.40;0.73;;;;;;;9.61;79.97;95696.69;5053866;28;20049;-57
2023/03/09 08:38:17;;;;;;;5.32;0.93;;;;;;;9.59;81.45;95717.78;5079329;28;20637;-57
2023/03/09 08:40:44;;;;;;;3.30;0.95;;;;;;;9.39;82.45;95710.69;5086937;28;20044;-57
2023/03/09 08:43:11;;;;;;;4.97;1.35;;;;;;;9.31;83.67;95727.50;5074954;28;20048;-57
2023/03/09 08:45:38;;;;;;;5.38;1.25;;;;;;;9.21;84.81;95734.63;5084832;28;20101;-57
2023/03/09 08:48:05;;;;;;;3.42;0.70;;;;;;;9.18;85.86;95735.19;5076793;28;20101;-59
2023/03/09 08:50:32;;;;;;;3.88;0.90;;;;;;;8.86;88.66;95771.63;5084678;28;20051;-56
2023/03/09 08:52:58;;;;;;;3.65;0.68;;;;;;;8.76;90.23;95766.25;5075475;28;20128;-57
2023/03/09 08:55:25;;;;;;;5.10;1.00;;;;;;;8.88;91.13;95768.63;5074400;28;20071;-58
2023/03/09 08:57:53;;;;;;;4.45;0.82;;;;;;;8.65;92.82;95762.81;5083593;28;20055;-58
2023/03/09 09:00:19;;;;;;;5.13;0.73;;;;;;;8.62;93.77;95768.81;5075324;28;20040;-57
2023/03/09 09:02:46;;;;;;;1.55;0.50;;;;;;;8.69;93.01;95778.19;5083720;28;20530;-57
2023/03/09 09:05:13;;;;;;;5.88;0.82;;;;;;;8.89;92.97;95778.34;5084225;28;20048;-58
2023/03/09 09:07:40;;;;;;;2.28;0.85;;;;;;;8.83;94.17;95777.56;5084951;28;20226;-58
2023/03/09 09:10:10;;;;;;;4.82;0.70;;;;;;;9.09;94.62;95772.81;5083664;28;21141;-56
2023/03/09 09:12:57;;;;;;;4.38;1.40;;;;;;;9.12;93.86;95776.81;5080495;28;20035;-58
2023/03/09 09:15:23;;;;;;;2.45;0.50;;;;;;;9.15;92.03;95776.28;5079841;28;20045;-58
2023/03/09 09:17:53;;;;;;;1.55;0.60;;;;;;;9.21;93.75;95777.00;5082089;28;20051;-59
2023/03/09 09:20:20;;;;;;;2.60;0.60;;;;;;;9.30;91.54;95785.31;5074661;28;20712;-58
2023/03/09 09:22:47;;;;;;;4.75;1.17;;;;;;;9.41;91.88;95780.66;5079050;28;20044;-58
2023/03/09 09:25:14;;;;;;;3.13;0.52;;;;;;;9.37;92.61;95780.41;5080887;28;20575;-56
2023/03/09 09:27:40;;;;;;;4.55;1.02;;;;;;;9.37;94.16;95775.78;5078719;28;20052;-58
2023/03/09 09:30:09;;;;;;;1.48;0.47;;;;;;;9.46;94.02;95777.88;5074938;27;20047;-56
2023/03/09 09:32:36;;;;;;;3.05;0.70;;;;;;;9.30;93.21;95763.72;5070851;28;20076;-55
2023/03/09 09:35:04;;;;;;;2.63;0.95;;;;;;;9.45;92.24;95771.69;5076786;28;20063;-58
2023/03/09 09:37:31;;;;;;;5.15;1.52;;;;;;;9.70;91.96;95780.63;5076895;28;20071;-55
2023/03/09 09:39:58;;;;;;;4.85;0.80;;;;;;;9.63;91.29;95788.28;5073624;28;20442;-59
2023/03/09 09:42:39;;;;;;;2.25;0.47;;;;;;;9.72;92.74;95783.88;5075490;28;20672;-56
2023/03/09 09:45:29;;;;;;;2.40;0.50;;;;;;;9.55;91.19;95789.69;5069504;28;21059;-57
2023/03/09 09:48:00;;;;;;;1.88;0.68;;;;;;;9.39;92.45;95789.03;5057084;28;20409;-58
2023/03/09 09:50:41;;;;;;;2.27;0.70;;;;;;;9.59;92.86;95795.34;5074572;28;20058;-58
2023/03/09 09:53:49;;;;;;;4.63;0.82;;;;;;;9.78;90.58;95787.31;5075834;28;20290;-58
2023/03/09 09:56:21;;;;;;;2.58;0.63;;;;;;;9.73;90.26;95792.78;5074403;28;20113;-56
2023/03/09 09:58:47;;;;;;;;;;;;;;;9.67;90.81;95800.13;5070284;28;20055;-58
2023/03/09 10:02:01;;;;;;;3.13;0.80;;;;;;;9.83;90.32;95818.88;5071462;28;20406;-59
2023/03/09 10:04:44;;;;;;;5.18;0.50;;;;;;;9.75;93.26;95828.44;5071033;28;20572;-56
2023/03/09 10:07:15;;;;;;;5.50;0.80;;;;;;;9.29;94.31;95837.75;5076306;28;20052;-59
2023/03/09 10:09:46;;;;;;;2.40;0.68;;;;;;;9.43;93.42;95844.09;5071896;28;20044;-58
2023/03/09 10:12:18;;;;;;;4.50;1.20;;;;;;;9.45;92.32;95847.34;5075788;28;20041;-59
2023/03/09 10:15:04;;;;;;;6.35;1.73;;;;;;;9.36;92.50;95857.94;5072198;28;20052;-58
2023/03/09 10:17:41;;;;;;;5.13;0.90;;;;;;;9.34;94.47;95845.78;5073794;28;20043;-57
2023/03/09 10:20:21;;;;;;;4.32;0.85;;;;;;;9.31;94.37;95863.38;5071929;28;20048;-58
2023/03/09 10:22:50;;;;;;;5.00;0.90;;;;;;;9.28;93.51;95841.53;5071372;28;20060;-57
2023/03/09 10:25:20;;;;;;;1.38;0.55;;;;;;;9.41;92.95;95851.69;5070833;28;20040;-58
2023/03/09 10:28:04;;;;;;;4.57;0.50;;;;;;;9.61;93.26;95836.38;5076937;28;20051;-58
2023/03/09 10:30:49;;;;;;;2.13;0.70;;;;;;;9.58;92.89;95856.69;5081459;28;20048;-59
2023/03/09 10:33:28;;;;;;;1.60;0.50;;;;;;;9.85;91.56;95836.44;5074778;28;20031;-57
2023/03/09 10:36:13;;;;;;;2.70;0.57;;;;;;;9.98;91.64;95840.38;5068142;28;20047;-57
2023/03/09 10:38:40;;;;;;;1.77;0.52;;;;;;;10.13;90.29;95839.41;5074199;28;20045;-58
2023/03/09 10:41:16;;;;;;;3.88;0.77;;;;;;;10.20;89.24;95835.53;5068874;28;20064;-58
2023/03/09 10:43:43;;;;;;;3.10;0.73;;;;;;;10.20;89.03;95839.06;5068725;28;20547;-58
2023/03/09 10:46:20;;;;;;;1.73;0.82;;;;;;;10.09;88.42;95848.38;5068281;28;20055;-58
2023/03/09 10:48:49;;;;;;;2.47;0.70;;;;;;;10.15;90.02;95834.50;5071002;28;20055;-58
2023/03/09 10:51:38;;;;;;;2.20;0.75;;;;;;;10.38;90.48;95825.88;5070247;28;20040;-58
2023/03/09 10:54:20;;;;;;;3.10;0.63;;;;;;;10.34;87.35;95825.66;5070295;28;20048;-59
2023/03/09 10:56:46;;;;;;;6.28;0.80;;;;;;;10.13;87.99;95847.53;5069461;28;20968;-59
2023/03/09 10:59:16;;;;;;;4.53;0.77;;;;;;;10.00;85.81;95853.63;5069469;28;20119;-58
2023/03/09 11:01:46;;;;;;;3.55;0.73;;;;;;;10.05;87.22;95861.66;5070897;28;20078;-58
2023/03/09 11:04:22;;;;;;;3.58;0.98;;;;;;;10.34;88.62;95858.13;5065531;28;20066;-58
2023/03/09 11:07:22;;;;;;;7.70;0.88;;;;;;;10.30;87.10;95862.50;5069231;28;20067;-59
2023/03/09 11:09:52;;;;;;;3.67;0.65;;;;;;;10.21;87.31;95862.31;5062479;28;20101;-59
2023/03/09 11:12:29;;;;;;;4.32;0.80;;;;;;;10.18;86.34;95851.28;5069070;28;20056;-59
2023/03/09 11:15:02;;;;;;;2.85;0.63;;;;;;;10.28;85.91;95865.50;5069475;28;20074;-59
2023/03/09 11:17:37;;;;;;;3.45;0.95;;;;;;;10.33;86.65;95851.13;5069023;28;20036;-56
2023/03/09 11:20:12;;;;;;;6.20;1.33;;;;;;;10.33;86.80;95872.75;5073783;28;20490;-61
2023/03/09 11:22:44;;;;;;;4.43;0.50;;;;;;;10.34;87.37;95858.13;5075338;28;20115;-59
2023/03/09 11:25:17;;;;;;;1.42;0.35;;;;;;;10.15;86.22;95856.16;5067828;28;20048;-58
2023/03/09 11:27:52;;;;;;;3.58;0.70;;;;;;;10.00;88.57;95856.31;5069251;28;20039;-60
2023/03/09 11:30:22;;;;;;;3.70;0.77;;;;;;;10.15;87.18;95860.78;5067689;28;20123;-59
2023/03/09 11:32:52;;;;;;;5.63;1.13;;;;;;;10.12;86.14;95858.63;5066675;28;20070;-59
2023/03/09 11:35:21;;;;;;;2.80;0.60;;;;;;;10.36;84.75;95864.03;5070205;28;20036;-59
2023/03/09 11:38:03;;;;;;;3.47;0.50;;;;;;;10.50;84.26;95849.84;5067163;28;20043;-60
2023/03/09 11:40:33;;;;;;;3.47;0.80;;;;;;;10.70;84.42;95851.53;5079669;28;20048;-60
2023/03/09 11:43:24;;;;;;;3.58;0.55;;;;;;;10.94;79.99;95847.94;5076697;28;20702;-59
2023/03/09 11:45:54;;;;;;;2.88;0.73;;;;;;;11.10;80.74;95855.88;5073531;28;20128;-59
2023/03/09 11:48:26;;;;;;;1.92;0.63;;;;;;;11.14;80.18;95854.19;5076867;28;20040;-58